sensor_id;sensor_type;location;lat;lon;timestamp;P1;durP1;ratioP1;P2;durP2;ratioP2
73585;SDS011;61865;50.232;18.614;2023-07-28T00:00:39;5.40;;;2.35;;
73585;SDS011;61865;50.232;18.614;2023-07-28T00:03:01;5.10;;;2.72;;
73585;SDS011;61865;50.232;18.614;2023-07-28T00:05:25;4.45;;;2.20;;
73585;SDS011;61865;50.232;18.614;2023-07-28T00:07:48;9.40;;;3.03;;
73585;SDS011;61865;50.232;18.614;2023-07-28T00:10:10;6.53;;;3.20;;
73585;SDS011;61865;50.232;18.614;2023-07-28T00:12:34;9.70;;;2.90;;
73585;SDS011;61865;50.232;18.614;2023-07-28T00:14:56;7.00;;;2.97;;
73585;SDS011;61865;50.232;18.614;2023-07-28T00:17:20;4.97;;;2.90;;
73585;SDS011;61865;50.232;18.614;2023-07-28T00:19:42;3.63;;;2.25;;
73585;SDS011;61865;50.232;18.614;2023-07-28T00:22:06;6.50;;;2.50;;
73585;SDS011;61865;50.232;18.614;2023-07-28T00:24:28;4.93;;;2.78;;
73585;SDS011;61865;50.232;18.614;2023-07-28T00:26:50;5.40;;;2.70;;
73585;SDS011;61865;50.232;18.614;2023-07-28T00:29:12;3.35;;;2.20;;
73585;SDS011;61865;50.232;18.614;2023-07-28T00:31:35;5.97;;;2.33;;
73585;SDS011;61865;50.232;18.614;2023-07-28T00:33:57;7.13;;;2.70;;
73585;SDS011;61865;50.232;18.614;2023-07-28T00:36:20;4.97;;;2.55;;
73585;SDS011;61865;50.232;18.614;2023-07-28T00:38:43;6.75;;;2.75;;
73585;SDS011;61865;50.232;18.614;2023-07-28T00:41:06;3.80;;;2.00;;
73585;SDS011;61865;50.232;18.614;2023-07-28T00:43:28;3.20;;;1.98;;
73585;SDS011;61865;50.232;18.614;2023-07-28T00:45:50;5.63;;;2.45;;
73585;SDS011;61865;50.232;18.614;2023-07-28T00:48:13;3.80;;;2.10;;
73585;SDS011;61865;50.232;18.614;2023-07-28T00:50:36;4.05;;;2.53;;
73585;SDS011;61865;50.232;18.614;2023-07-28T00:52:59;5.60;;;2.10;;
73585;SDS011;61865;50.232;18.614;2023-07-28T00:55:22;4.28;;;2.40;;
73585;SDS011;61865;50.232;18.614;2023-07-28T00:57:45;5.10;;;2.25;;
73585;SDS011;61865;50.232;18.614;2023-07-28T01:00:07;5.68;;;2.33;;
73585;SDS011;61865;50.232;18.614;2023-07-28T01:02:30;6.30;;;2.50;;
73585;SDS011;61865;50.232;18.614;2023-07-28T01:04:55;6.80;;;2.40;;
73585;SDS011;61865;50.232;18.614;2023-07-28T01:07:20;4.47;;;2.42;;
73585;SDS011;61865;50.232;18.614;2023-07-28T01:09:46;3.05;;;2.22;;
73585;SDS011;61865;50.232;18.614;2023-07-28T01:12:12;4.28;;;2.33;;
73585;SDS011;61865;50.232;18.614;2023-07-28T01:14:34;5.78;;;3.55;;
73585;SDS011;61865;50.232;18.614;2023-07-28T01:16:57;4.70;;;2.50;;
73585;SDS011;61865;50.232;18.614;2023-07-28T01:19:20;3.97;;;2.33;;
73585;SDS011;61865;50.232;18.614;2023-07-28T01:21:43;5.13;;;2.47;;
73585;SDS011;61865;50.232;18.614;2023-07-28T01:24:10;5.35;;;2.50;;
73585;SDS011;61865;50.232;18.614;2023-07-28T01:26:39;3.13;;;2.30;;
73585;SDS011;61865;50.232;18.614;2023-07-28T01:29:01;3.83;;;2.28;;
73585;SDS011;61865;50.232;18.614;2023-07-28T01:31:24;3.83;;;2.40;;
73585;SDS011;61865;50.232;18.614;2023-07-28T01:33:47;4.38;;;2.70;;
73585;SDS011;61865;50.232;18.614;2023-07-28T01:36:09;2.85;;;2.15;;
73585;SDS011;61865;50.232;18.614;2023-07-28T01:38:31;5.03;;;2.53;;
73585;SDS011;61865;50.232;18.614;2023-07-28T01:40:54;3.28;;;2.17;;
73585;SDS011;61865;50.232;18.614;2023-07-28T01:43:17;3.95;;;2.58;;
73585;SDS011;61865;50.232;18.614;2023-07-28T01:45:40;3.97;;;2.40;;
73585;SDS011;61865;50.232;18.614;2023-07-28T01:48:02;4.28;;;2.35;;
73585;SDS011;61865;50.232;18.614;2023-07-28T01:50:24;2.75;;;2.10;;
73585;SDS011;61865;50.232;18.614;2023-07-28T01:52:46;3.35;;;2.20;;
73585;SDS011;61865;50.232;18.614;2023-07-28T01:55:09;4.25;;;2.55;;
73585;SDS011;61865;50.232;18.614;2023-07-28T01:57:32;7.03;;;2.45;;
73585;SDS011;61865;50.232;18.614;2023-07-28T01:59:56;5.75;;;2.38;;
73585;SDS011;61865;50.232;18.614;2023-07-28T02:02:18;6.07;;;2.47;;
73585;SDS011;61865;50.232;18.614;2023-07-28T02:04:40;4.55;;;2.30;;
73585;SDS011;61865;50.232;18.614;2023-07-28T02:07:02;4.28;;;2.33;;
73585;SDS011;61865;50.232;18.614;2023-07-28T02:09:25;5.20;;;2.63;;
73585;SDS011;61865;50.232;18.614;2023-07-28T02:11:47;4.68;;;2.35;;
73585;SDS011;61865;50.232;18.614;2023-07-28T02:14:10;5.75;;;2.50;;
73585;SDS011;61865;50.232;18.614;2023-07-28T02:16:33;7.88;;;2.88;;
73585;SDS011;61865;50.232;18.614;2023-07-28T02:18:56;6.65;;;2.72;;
73585;SDS011;61865;50.232;18.614;2023-07-28T02:21:18;4.30;;;2.35;;
73585;SDS011;61865;50.232;18.614;2023-07-28T02:23:40;3.97;;;2.40;;
73585;SDS011;61865;50.232;18.614;2023-07-28T02:26:02;3.72;;;2.10;;
73585;SDS011;61865;50.232;18.614;2023-07-28T02:28:25;8.68;;;2.40;;
73585;SDS011;61865;50.232;18.614;2023-07-28T02:30:47;3.97;;;2.40;;
73585;SDS011;61865;50.232;18.614;2023-07-28T02:33:11;5.03;;;2.40;;
73585;SDS011;61865;50.232;18.614;2023-07-28T02:35:33;3.78;;;2.30;;
73585;SDS011;61865;50.232;18.614;2023-07-28T02:37:56;4.22;;;2.20;;
73585;SDS011;61865;50.232;18.614;2023-07-28T02:40:18;6.78;;;2.45;;
73585;SDS011;61865;50.232;18.614;2023-07-28T02:42:41;2.55;;;2.00;;
73585;SDS011;61865;50.232;18.614;2023-07-28T02:45:03;3.50;;;2.13;;
73585;SDS011;61865;50.232;18.614;2023-07-28T02:47:25;4.43;;;2.40;;
73585;SDS011;61865;50.232;18.614;2023-07-28T02:49:49;5.30;;;2.47;;
73585;SDS011;61865;50.232;18.614;2023-07-28T02:52:11;4.38;;;2.22;;
73585;SDS011;61865;50.232;18.614;2023-07-28T02:54:34;4.00;;;2.40;;
73585;SDS011;61865;50.232;18.614;2023-07-28T02:56:56;4.55;;;2.63;;
73585;SDS011;61865;50.232;18.614;2023-07-28T02:59:19;3.58;;;1.92;;
73585;SDS011;61865;50.232;18.614;2023-07-28T03:01:41;3.70;;;2.40;;
73585;SDS011;61865;50.232;18.614;2023-07-28T03:04:03;6.00;;;2.85;;
73585;SDS011;61865;50.232;18.614;2023-07-28T03:06:27;4.30;;;2.45;;
73585;SDS011;61865;50.232;18.614;2023-07-28T03:08:50;3.42;;;2.40;;
73585;SDS011;61865;50.232;18.614;2023-07-28T03:11:12;6.70;;;2.30;;
73585;SDS011;61865;50.232;18.614;2023-07-28T03:13:34;6.70;;;2.53;;
73585;SDS011;61865;50.232;18.614;2023-07-28T03:15:56;5.53;;;2.70;;
73585;SDS011;61865;50.232;18.614;2023-07-28T03:18:19;3.90;;;2.40;;
73585;SDS011;61865;50.232;18.614;2023-07-28T03:20:41;4.78;;;2.67;;
73585;SDS011;61865;50.232;18.614;2023-07-28T03:23:05;6.82;;;2.70;;
73585;SDS011;61865;50.232;18.614;2023-07-28T03:25:27;4.30;;;2.50;;
73585;SDS011;61865;50.232;18.614;2023-07-28T03:27:49;3.40;;;2.38;;
73585;SDS011;61865;50.232;18.614;2023-07-28T03:30:13;4.43;;;2.28;;
73585;SDS011;61865;50.232;18.614;2023-07-28T03:32:35;3.45;;;2.13;;
73585;SDS011;61865;50.232;18.614;2023-07-28T03:34:58;3.25;;;2.20;;
73585;SDS011;61865;50.232;18.614;2023-07-28T03:37:20;4.65;;;2.50;;
73585;SDS011;61865;50.232;18.614;2023-07-28T03:39:44;9.48;;;2.60;;
73585;SDS011;61865;50.232;18.614;2023-07-28T03:42:06;5.82;;;2.42;;
73585;SDS011;61865;50.232;18.614;2023-07-28T03:44:29;5.30;;;2.30;;
73585;SDS011;61865;50.232;18.614;2023-07-28T03:46:51;4.28;;;2.50;;
73585;SDS011;61865;50.232;18.614;2023-07-28T03:49:13;7.32;;;2.45;;
73585;SDS011;61865;50.232;18.614;2023-07-28T03:51:36;4.15;;;2.47;;
73585;SDS011;61865;50.232;18.614;2023-07-28T03:53:58;3.25;;;2.50;;
73585;SDS011;61865;50.232;18.614;2023-07-28T03:56:22;4.40;;;2.40;;
73585;SDS011;61865;50.232;18.614;2023-07-28T03:58:44;4.05;;;2.42;;
73585;SDS011;61865;50.232;18.614;2023-07-28T04:01:06;4.35;;;2.22;;
73585;SDS011;61865;50.232;18.614;2023-07-28T04:03:30;5.28;;;2.75;;
73585;SDS011;61865;50.232;18.614;2023-07-28T04:05:52;4.75;;;2.80;;
73585;SDS011;61865;50.232;18.614;2023-07-28T04:08:14;4.75;;;2.40;;
73585;SDS011;61865;50.232;18.614;2023-07-28T04:10:36;6.35;;;2.63;;
73585;SDS011;61865;50.232;18.614;2023-07-28T04:13:00;4.82;;;2.33;;
73585;SDS011;61865;50.232;18.614;2023-07-28T04:15:22;4.50;;;2.42;;
73585;SDS011;61865;50.232;18.614;2023-07-28T04:17:45;5.10;;;2.60;;
73585;SDS011;61865;50.232;18.614;2023-07-28T04:20:07;3.90;;;2.30;;
73585;SDS011;61865;50.232;18.614;2023-07-28T04:22:30;3.35;;;2.15;;
73585;SDS011;61865;50.232;18.614;2023-07-28T04:24:52;7.05;;;2.47;;
73585;SDS011;61865;50.232;18.614;2023-07-28T04:27:15;4.70;;;2.30;;
73585;SDS011;61865;50.232;18.614;2023-07-28T04:29:38;3.65;;;2.42;;
73585;SDS011;61865;50.232;18.614;2023-07-28T04:32:01;5.28;;;2.50;;
73585;SDS011;61865;50.232;18.614;2023-07-28T04:34:23;5.13;;;2.20;;
73585;SDS011;61865;50.232;18.614;2023-07-28T04:36:45;5.35;;;2.58;;
73585;SDS011;61865;50.232;18.614;2023-07-28T04:39:07;6.15;;;2.42;;
73585;SDS011;61865;50.232;18.614;2023-07-28T04:41:30;3.55;;;2.17;;
73585;SDS011;61865;50.232;18.614;2023-07-28T04:43:52;5.20;;;2.60;;
73585;SDS011;61865;50.232;18.614;2023-07-28T04:46:16;4.93;;;2.72;;
73585;SDS011;61865;50.232;18.614;2023-07-28T04:48:38;6.57;;;2.50;;
73585;SDS011;61865;50.232;18.614;2023-07-28T04:51:00;4.22;;;2.50;;
73585;SDS011;61865;50.232;18.614;2023-07-28T04:53:23;3.80;;;2.50;;
73585;SDS011;61865;50.232;18.614;2023-07-28T04:55:45;4.22;;;2.47;;
73585;SDS011;61865;50.232;18.614;2023-07-28T04:58:07;7.85;;;2.70;;
73585;SDS011;61865;50.232;18.614;2023-07-28T05:00:29;4.10;;;2.53;;
73585;SDS011;61865;50.232;18.614;2023-07-28T05:02:53;6.00;;;2.60;;
73585;SDS011;61865;50.232;18.614;2023-07-28T05:05:15;4.00;;;2.50;;
73585;SDS011;61865;50.232;18.614;2023-07-28T05:07:38;4.40;;;2.47;;
73585;SDS011;61865;50.232;18.614;2023-07-28T05:10:00;5.88;;;2.85;;
73585;SDS011;61865;50.232;18.614;2023-07-28T05:12:22;5.95;;;2.95;;
73585;SDS011;61865;50.232;18.614;2023-07-28T05:14:45;7.25;;;2.97;;
73585;SDS011;61865;50.232;18.614;2023-07-28T05:17:07;9.38;;;2.88;;
73585;SDS011;61865;50.232;18.614;2023-07-28T05:19:31;5.85;;;3.00;;
73585;SDS011;61865;50.232;18.614;2023-07-28T05:21:53;4.78;;;2.78;;
73585;SDS011;61865;50.232;18.614;2023-07-28T05:24:15;5.22;;;2.85;;
73585;SDS011;61865;50.232;18.614;2023-07-28T05:26:39;5.18;;;3.08;;
73585;SDS011;61865;50.232;18.614;2023-07-28T05:29:01;5.95;;;3.13;;
73585;SDS011;61865;50.232;18.614;2023-07-28T05:31:23;4.50;;;2.80;;
73585;SDS011;61865;50.232;18.614;2023-07-28T05:33:45;7.45;;;3.00;;
73585;SDS011;61865;50.232;18.614;2023-07-28T05:36:09;5.07;;;2.85;;
73585;SDS011;61865;50.232;18.614;2023-07-28T05:38:31;4.97;;;2.70;;
73585;SDS011;61865;50.232;18.614;2023-07-28T05:40:57;5.22;;;2.85;;
73585;SDS011;61865;50.232;18.614;2023-07-28T05:43:20;6.93;;;2.78;;
73585;SDS011;61865;50.232;18.614;2023-07-28T05:45:45;8.43;;;2.97;;
73585;SDS011;61865;50.232;18.614;2023-07-28T05:48:08;4.85;;;2.75;;
73585;SDS011;61865;50.232;18.614;2023-07-28T05:50:30;7.80;;;3.25;;
73585;SDS011;61865;50.232;18.614;2023-07-28T05:52:55;5.00;;;2.97;;
73585;SDS011;61865;50.232;18.614;2023-07-28T05:55:17;6.82;;;3.28;;
73585;SDS011;61865;50.232;18.614;2023-07-28T05:57:39;5.35;;;2.95;;
73585;SDS011;61865;50.232;18.614;2023-07-28T06:00:01;7.13;;;3.42;;
73585;SDS011;61865;50.232;18.614;2023-07-28T06:02:24;5.60;;;3.10;;
73585;SDS011;61865;50.232;18.614;2023-07-28T06:04:46;5.32;;;3.20;;
73585;SDS011;61865;50.232;18.614;2023-07-28T06:07:09;4.85;;;3.05;;
73585;SDS011;61865;50.232;18.614;2023-07-28T06:09:33;5.78;;;3.15;;
73585;SDS011;61865;50.232;18.614;2023-07-28T06:11:56;6.57;;;3.13;;
73585;SDS011;61865;50.232;18.614;2023-07-28T06:14:18;4.97;;;3.15;;
73585;SDS011;61865;50.232;18.614;2023-07-28T06:16:40;8.48;;;3.35;;
73585;SDS011;61865;50.232;18.614;2023-07-28T06:19:03;5.75;;;3.40;;
73585;SDS011;61865;50.232;18.614;2023-07-28T06:21:25;8.32;;;3.33;;
73585;SDS011;61865;50.232;18.614;2023-07-28T06:23:47;5.45;;;2.97;;
73585;SDS011;61865;50.232;18.614;2023-07-28T06:26:11;5.65;;;2.95;;
73585;SDS011;61865;50.232;18.614;2023-07-28T06:28:34;4.70;;;3.00;;
73585;SDS011;61865;50.232;18.614;2023-07-28T06:30:57;10.57;;;3.38;;
73585;SDS011;61865;50.232;18.614;2023-07-28T06:33:20;5.05;;;3.15;;
73585;SDS011;61865;50.232;18.614;2023-07-28T06:35:42;5.13;;;3.40;;
73585;SDS011;61865;50.232;18.614;2023-07-28T06:38:04;6.93;;;3.53;;
73585;SDS011;61865;50.232;18.614;2023-07-28T06:40:27;7.13;;;3.38;;
73585;SDS011;61865;50.232;18.614;2023-07-28T06:42:51;5.05;;;3.40;;
73585;SDS011;61865;50.232;18.614;2023-07-28T06:45:13;5.18;;;3.17;;
73585;SDS011;61865;50.232;18.614;2023-07-28T06:47:35;6.38;;;3.40;;
73585;SDS011;61865;50.232;18.614;2023-07-28T06:49:58;4.10;;;3.05;;
73585;SDS011;61865;50.232;18.614;2023-07-28T06:52:20;7.38;;;3.30;;
73585;SDS011;61865;50.232;18.614;2023-07-28T06:54:43;5.72;;;3.50;;
73585;SDS011;61865;50.232;18.614;2023-07-28T06:57:07;6.53;;;3.42;;
73585;SDS011;61865;50.232;18.614;2023-07-28T06:59:30;5.00;;;3.22;;
73585;SDS011;61865;50.232;18.614;2023-07-28T07:01:53;7.57;;;3.63;;
73585;SDS011;61865;50.232;18.614;2023-07-28T07:04:15;5.32;;;3.65;;
73585;SDS011;61865;50.232;18.614;2023-07-28T07:06:37;4.13;;;2.58;;
73585;SDS011;61865;50.232;18.614;2023-07-28T07:09:00;5.15;;;3.42;;
73585;SDS011;61865;50.232;18.614;2023-07-28T07:11:23;6.60;;;3.17;;
73585;SDS011;61865;50.232;18.614;2023-07-28T07:13:45;5.05;;;3.50;;
73585;SDS011;61865;50.232;18.614;2023-07-28T07:16:14;5.97;;;3.25;;
73585;SDS011;61865;50.232;18.614;2023-07-28T07:18:36;4.50;;;3.10;;
73585;SDS011;61865;50.232;18.614;2023-07-28T07:21:00;4.72;;;3.10;;
73585;SDS011;61865;50.232;18.614;2023-07-28T07:23:23;5.95;;;3.30;;
73585;SDS011;61865;50.232;18.614;2023-07-28T07:25:48;6.60;;;3.38;;
73585;SDS011;61865;50.232;18.614;2023-07-28T07:28:11;10.02;;;3.60;;
73585;SDS011;61865;50.232;18.614;2023-07-28T07:30:33;5.88;;;3.30;;
73585;SDS011;61865;50.232;18.614;2023-07-28T07:32:57;5.68;;;3.15;;
73585;SDS011;61865;50.232;18.614;2023-07-28T07:35:19;6.38;;;3.08;;
73585;SDS011;61865;50.232;18.614;2023-07-28T07:37:42;4.55;;;2.90;;
73585;SDS011;61865;50.232;18.614;2023-07-28T07:40:04;5.00;;;3.10;;
73585;SDS011;61865;50.232;18.614;2023-07-28T07:42:28;4.25;;;2.80;;
73585;SDS011;61865;50.232;18.614;2023-07-28T07:44:50;4.60;;;2.85;;
73585;SDS011;61865;50.232;18.614;2023-07-28T07:47:12;5.47;;;2.78;;
73585;SDS011;61865;50.232;18.614;2023-07-28T07:49:37;4.93;;;2.90;;
73585;SDS011;61865;50.232;18.614;2023-07-28T07:51:59;4.22;;;2.78;;
73585;SDS011;61865;50.232;18.614;2023-07-28T07:54:21;3.58;;;2.70;;
73585;SDS011;61865;50.232;18.614;2023-07-28T07:56:44;7.38;;;2.50;;
73585;SDS011;61865;50.232;18.614;2023-07-28T07:59:06;4.05;;;2.70;;
73585;SDS011;61865;50.232;18.614;2023-07-28T08:01:29;5.00;;;3.15;;
73585;SDS011;61865;50.232;18.614;2023-07-28T08:03:51;8.55;;;2.90;;
73585;SDS011;61865;50.232;18.614;2023-07-28T08:06:15;5.32;;;2.85;;
73585;SDS011;61865;50.232;18.614;2023-07-28T08:08:37;4.05;;;2.70;;
73585;SDS011;61865;50.232;18.614;2023-07-28T08:11:00;4.97;;;2.80;;
73585;SDS011;61865;50.232;18.614;2023-07-28T08:13:22;8.25;;;2.97;;
73585;SDS011;61865;50.232;18.614;2023-07-28T08:15:45;4.50;;;2.83;;
73585;SDS011;61865;50.232;18.614;2023-07-28T08:18:08;5.68;;;2.70;;
73585;SDS011;61865;50.232;18.614;2023-07-28T08:20:30;4.63;;;2.85;;
73585;SDS011;61865;50.232;18.614;2023-07-28T08:22:54;4.47;;;2.90;;
73585;SDS011;61865;50.232;18.614;2023-07-28T08:25:16;6.60;;;2.80;;
73585;SDS011;61865;50.232;18.614;2023-07-28T08:27:38;4.22;;;2.80;;
73585;SDS011;61865;50.232;18.614;2023-07-28T08:30:01;5.78;;;2.95;;
73585;SDS011;61865;50.232;18.614;2023-07-28T08:32:23;3.60;;;2.45;;
73585;SDS011;61865;50.232;18.614;2023-07-28T08:34:46;6.95;;;3.00;;
73585;SDS011;61865;50.232;18.614;2023-07-28T08:37:08;7.97;;;2.95;;
73585;SDS011;61865;50.232;18.614;2023-07-28T08:39:32;4.97;;;2.88;;
73585;SDS011;61865;50.232;18.614;2023-07-28T08:41:57;4.50;;;2.70;;
73585;SDS011;61865;50.232;18.614;2023-07-28T08:44:20;5.22;;;2.75;;
73585;SDS011;61865;50.232;18.614;2023-07-28T08:46:43;5.70;;;2.88;;
73585;SDS011;61865;50.232;18.614;2023-07-28T08:49:05;4.55;;;2.88;;
73585;SDS011;61865;50.232;18.614;2023-07-28T08:51:27;8.88;;;2.85;;
73585;SDS011;61865;50.232;18.614;2023-07-28T08:53:50;5.20;;;2.70;;
73585;SDS011;61865;50.232;18.614;2023-07-28T08:56:13;3.83;;;2.60;;
73585;SDS011;61865;50.232;18.614;2023-07-28T08:58:36;4.00;;;2.67;;
73585;SDS011;61865;50.232;18.614;2023-07-28T09:00:58;7.85;;;2.70;;
73585;SDS011;61865;50.232;18.614;2023-07-28T09:03:22;7.65;;;2.80;;
73585;SDS011;61865;50.232;18.614;2023-07-28T09:05:47;3.75;;;2.58;;
73585;SDS011;61865;50.232;18.614;2023-07-28T09:08:09;6.20;;;2.72;;
73585;SDS011;61865;50.232;18.614;2023-07-28T09:10:39;5.28;;;2.60;;
73585;SDS011;61865;50.232;18.614;2023-07-28T09:13:03;3.45;;;2.30;;
73585;SDS011;61865;50.232;18.614;2023-07-28T09:15:26;6.15;;;2.63;;
73585;SDS011;61865;50.232;18.614;2023-07-28T09:17:49;6.28;;;2.83;;
73585;SDS011;61865;50.232;18.614;2023-07-28T09:20:14;4.55;;;2.40;;
73585;SDS011;61865;50.232;18.614;2023-07-28T09:22:38;5.70;;;2.50;;
73585;SDS011;61865;50.232;18.614;2023-07-28T09:25:01;5.63;;;2.60;;
73585;SDS011;61865;50.232;18.614;2023-07-28T09:27:33;4.47;;;2.75;;
73585;SDS011;61865;50.232;18.614;2023-07-28T09:29:57;7.28;;;2.80;;
73585;SDS011;61865;50.232;18.614;2023-07-28T09:32:26;4.38;;;2.60;;
73585;SDS011;61865;50.232;18.614;2023-07-28T09:34:50;4.68;;;2.50;;
73585;SDS011;61865;50.232;18.614;2023-07-28T09:37:27;5.32;;;2.80;;
73585;SDS011;61865;50.232;18.614;2023-07-28T09:39:49;4.50;;;2.60;;
73585;SDS011;61865;50.232;18.614;2023-07-28T09:42:12;5.40;;;2.80;;
73585;SDS011;61865;50.232;18.614;2023-07-28T09:44:35;6.30;;;3.20;;
73585;SDS011;61865;50.232;18.614;2023-07-28T09:46:59;4.43;;;2.53;;
73585;SDS011;61865;50.232;18.614;2023-07-28T09:49:22;7.05;;;3.10;;
73585;SDS011;61865;50.232;18.614;2023-07-28T09:51:49;8.13;;;2.78;;
73585;SDS011;61865;50.232;18.614;2023-07-28T09:54:20;5.25;;;2.80;;
73585;SDS011;61865;50.232;18.614;2023-07-28T09:56:47;6.80;;;2.58;;
73585;SDS011;61865;50.232;18.614;2023-07-28T09:59:10;7.22;;;2.67;;
73585;SDS011;61865;50.232;18.614;2023-07-28T10:01:33;5.03;;;2.83;;
73585;SDS011;61865;50.232;18.614;2023-07-28T10:03:56;4.03;;;2.63;;
73585;SDS011;61865;50.232;18.614;2023-07-28T10:06:20;6.45;;;2.70;;
73585;SDS011;61865;50.232;18.614;2023-07-28T10:08:43;4.40;;;2.83;;
73585;SDS011;61865;50.232;18.614;2023-07-28T10:11:06;4.75;;;2.67;;
73585;SDS011;61865;50.232;18.614;2023-07-28T10:13:28;7.90;;;2.58;;
73585;SDS011;61865;50.232;18.614;2023-07-28T10:15:51;5.47;;;2.88;;
73585;SDS011;61865;50.232;18.614;2023-07-28T10:18:14;4.88;;;2.70;;
73585;SDS011;61865;50.232;18.614;2023-07-28T10:20:38;6.85;;;2.90;;
73585;SDS011;61865;50.232;18.614;2023-07-28T10:23:02;8.32;;;2.80;;
73585;SDS011;61865;50.232;18.614;2023-07-28T10:25:24;5.45;;;2.38;;
73585;SDS011;61865;50.232;18.614;2023-07-28T10:27:47;3.92;;;2.22;;
73585;SDS011;61865;50.232;18.614;2023-07-28T10:30:10;5.53;;;2.45;;
73585;SDS011;61865;50.232;18.614;2023-07-28T10:32:36;4.88;;;2.30;;
73585;SDS011;61865;50.232;18.614;2023-07-28T10:35:00;6.30;;;2.40;;
73585;SDS011;61865;50.232;18.614;2023-07-28T10:37:24;3.60;;;2.25;;
73585;SDS011;61865;50.232;18.614;2023-07-28T10:39:46;4.90;;;2.45;;
73585;SDS011;61865;50.232;18.614;2023-07-28T10:42:09;3.63;;;2.20;;
73585;SDS011;61865;50.232;18.614;2023-07-28T10:44:31;7.57;;;2.25;;
73585;SDS011;61865;50.232;18.614;2023-07-28T10:46:53;4.00;;;2.33;;
73585;SDS011;61865;50.232;18.614;2023-07-28T10:49:16;3.55;;;2.38;;
73585;SDS011;61865;50.232;18.614;2023-07-28T10:51:38;5.45;;;2.30;;
73585;SDS011;61865;50.232;18.614;2023-07-28T10:54:02;3.83;;;2.05;;
73585;SDS011;61865;50.232;18.614;2023-07-28T10:56:25;4.60;;;2.00;;
73585;SDS011;61865;50.232;18.614;2023-07-28T10:58:54;2.97;;;2.10;;
73585;SDS011;61865;50.232;18.614;2023-07-28T11:01:17;6.15;;;2.13;;
73585;SDS011;61865;50.232;18.614;2023-07-28T11:03:43;7.45;;;2.03;;
73585;SDS011;61865;50.232;18.614;2023-07-28T11:06:08;6.15;;;2.50;;
73585;SDS011;61865;50.232;18.614;2023-07-28T11:08:30;3.08;;;2.10;;
73585;SDS011;61865;50.232;18.614;2023-07-28T11:10:56;5.50;;;2.10;;
73585;SDS011;61865;50.232;18.614;2023-07-28T11:13:18;2.20;;;1.80;;
73585;SDS011;61865;50.232;18.614;2023-07-28T11:15:41;2.67;;;1.98;;
73585;SDS011;61865;50.232;18.614;2023-07-28T11:18:03;4.70;;;1.70;;
73585;SDS011;61865;50.232;18.614;2023-07-28T11:20:27;3.53;;;2.00;;
73585;SDS011;61865;50.232;18.614;2023-07-28T11:22:52;5.75;;;1.83;;
73585;SDS011;61865;50.232;18.614;2023-07-28T11:25:13;2.70;;;1.90;;
73585;SDS011;61865;50.232;18.614;2023-07-28T11:27:37;3.28;;;2.05;;
73585;SDS011;61865;50.232;18.614;2023-07-28T11:29:59;3.20;;;1.80;;
73585;SDS011;61865;50.232;18.614;2023-07-28T11:32:23;3.17;;;1.75;;
73585;SDS011;61865;50.232;18.614;2023-07-28T11:34:46;2.45;;;1.77;;
73585;SDS011;61865;50.232;18.614;2023-07-28T11:37:08;2.33;;;1.77;;
73585;SDS011;61865;50.232;18.614;2023-07-28T11:39:32;2.35;;;1.60;;
73585;SDS011;61865;50.232;18.614;2023-07-28T11:41:54;2.75;;;1.88;;
73585;SDS011;61865;50.232;18.614;2023-07-28T11:44:18;1.95;;;1.45;;
73585;SDS011;61865;50.232;18.614;2023-07-28T11:46:41;4.03;;;1.60;;
73585;SDS011;61865;50.232;18.614;2023-07-28T11:49:07;1.52;;;1.40;;
73585;SDS011;61865;50.232;18.614;2023-07-28T11:51:30;3.67;;;1.77;;
73585;SDS011;61865;50.232;18.614;2023-07-28T11:53:52;1.92;;;1.70;;
73585;SDS011;61865;50.232;18.614;2023-07-28T11:56:14;3.30;;;1.55;;
73585;SDS011;61865;50.232;18.614;2023-07-28T11:58:37;2.03;;;1.40;;
73585;SDS011;61865;50.232;18.614;2023-07-28T12:01:01;3.55;;;1.58;;
73585;SDS011;61865;50.232;18.614;2023-07-28T12:03:30;3.15;;;1.40;;
73585;SDS011;61865;50.232;18.614;2023-07-28T12:06:01;5.57;;;1.48;;
73585;SDS011;61865;50.232;18.614;2023-07-28T12:08:33;1.55;;;1.40;;
73585;SDS011;61865;50.232;18.614;2023-07-28T12:10:55;2.45;;;1.40;;
73585;SDS011;61865;50.232;18.614;2023-07-28T12:13:17;4.15;;;1.40;;
73585;SDS011;61865;50.232;18.614;2023-07-28T12:15:42;1.83;;;1.48;;
73585;SDS011;61865;50.232;18.614;2023-07-28T12:18:12;2.05;;;1.33;;
73585;SDS011;61865;50.232;18.614;2023-07-28T12:20:35;1.50;;;1.40;;
73585;SDS011;61865;50.232;18.614;2023-07-28T12:22:58;1.45;;;1.30;;
73585;SDS011;61865;50.232;18.614;2023-07-28T12:25:20;1.33;;;1.20;;
73585;SDS011;61865;50.232;18.614;2023-07-28T12:27:43;1.83;;;1.50;;
73585;SDS011;61865;50.232;18.614;2023-07-28T12:30:05;1.50;;;1.40;;
73585;SDS011;61865;50.232;18.614;2023-07-28T12:32:29;1.02;;;1.00;;
73585;SDS011;61865;50.232;18.614;2023-07-28T12:34:52;1.35;;;1.27;;
73585;SDS011;61865;50.232;18.614;2023-07-28T12:37:15;1.10;;;1.00;;
73585;SDS011;61865;50.232;18.614;2023-07-28T12:39:38;1.52;;;1.40;;
73585;SDS011;61865;50.232;18.614;2023-07-28T12:42:00;1.27;;;1.17;;
73585;SDS011;61865;50.232;18.614;2023-07-28T12:44:22;4.38;;;1.60;;
73585;SDS011;61865;50.232;18.614;2023-07-28T12:46:45;1.40;;;1.30;;
73585;SDS011;61865;50.232;18.614;2023-07-28T12:49:07;1.92;;;1.27;;
73585;SDS011;61865;50.232;18.614;2023-07-28T12:51:30;1.52;;;1.42;;
73585;SDS011;61865;50.232;18.614;2023-07-28T12:53:53;2.00;;;1.50;;
73585;SDS011;61865;50.232;18.614;2023-07-28T12:56:17;2.38;;;1.55;;
73585;SDS011;61865;50.232;18.614;2023-07-28T12:58:40;1.58;;;1.48;;
73585;SDS011;61865;50.232;18.614;2023-07-28T13:01:02;1.65;;;1.40;;
73585;SDS011;61865;50.232;18.614;2023-07-28T13:03:24;1.45;;;1.35;;
73585;SDS011;61865;50.232;18.614;2023-07-28T13:05:47;2.33;;;1.10;;
73585;SDS011;61865;50.232;18.614;2023-07-28T13:08:10;2.85;;;1.23;;
73585;SDS011;61865;50.232;18.614;2023-07-28T13:10:33;2.88;;;1.40;;
73585;SDS011;61865;50.232;18.614;2023-07-28T13:12:55;2.95;;;1.30;;
73585;SDS011;61865;50.232;18.614;2023-07-28T13:15:17;1.50;;;1.40;;
73585;SDS011;61865;50.232;18.614;2023-07-28T13:17:40;3.53;;;1.40;;
73585;SDS011;61865;50.232;18.614;2023-07-28T13:20:02;3.13;;;1.20;;
73585;SDS011;61865;50.232;18.614;2023-07-28T13:22:25;1.40;;;1.30;;
73585;SDS011;61865;50.232;18.614;2023-07-28T13:24:49;1.50;;;1.30;;
73585;SDS011;61865;50.232;18.614;2023-07-28T13:27:11;1.38;;;1.27;;
73585;SDS011;61865;50.232;18.614;2023-07-28T13:29:33;2.25;;;1.38;;
73585;SDS011;61865;50.232;18.614;2023-07-28T13:31:57;3.05;;;1.60;;
73585;SDS011;61865;50.232;18.614;2023-07-28T13:34:20;1.58;;;1.45;;
73585;SDS011;61865;50.232;18.614;2023-07-28T13:36:42;1.40;;;1.30;;
73585;SDS011;61865;50.232;18.614;2023-07-28T13:39:04;3.40;;;1.42;;
73585;SDS011;61865;50.232;18.614;2023-07-28T13:41:28;2.47;;;1.52;;
73585;SDS011;61865;50.232;18.614;2023-07-28T13:43:51;1.38;;;1.27;;
73585;SDS011;61865;50.232;18.614;2023-07-28T13:46:13;20.58;;;1.90;;
73585;SDS011;61865;50.232;18.614;2023-07-28T13:48:35;1.75;;;1.33;;
73585;SDS011;61865;50.232;18.614;2023-07-28T13:50:59;1.40;;;1.25;;
73585;SDS011;61865;50.232;18.614;2023-07-28T13:53:21;4.03;;;1.40;;
73585;SDS011;61865;50.232;18.614;2023-07-28T13:55:43;2.78;;;1.40;;
73585;SDS011;61865;50.232;18.614;2023-07-28T13:58:07;1.67;;;1.58;;
73585;SDS011;61865;50.232;18.614;2023-07-28T14:00:30;3.38;;;1.67;;
73585;SDS011;61865;50.232;18.614;2023-07-28T14:02:52;1.80;;;1.50;;
73585;SDS011;61865;50.232;18.614;2023-07-28T14:05:14;6.90;;;1.60;;
73585;SDS011;61865;50.232;18.614;2023-07-28T14:07:37;2.65;;;1.70;;